createdAt,value
2018-08-16T00:02:11.279Z,41.70
2018-08-16T00:04:43.339Z,41.60
2018-08-16T00:09:53.669Z,42.00
2018-08-16T00:12:23.424Z,41.80
2018-08-16T00:15:10.809Z,42.20
2018-08-16T00:17:44.831Z,42.10
2018-08-16T00:23:09.155Z,42.40
2018-08-16T00:25:36.994Z,42.40
2018-08-16T00:28:05.394Z,42.40
2018-08-16T00:30:34.307Z,42.40
2018-08-16T00:33:21.530Z,42.40
2018-08-16T00:35:49.488Z,42.40
2018-08-16T00:38:17.591Z,42.40
2018-08-16T00:40:46.621Z,42.40
2018-08-16T00:43:15.369Z,42.40
2018-08-16T00:45:44.130Z,42.40
2018-08-16T00:48:13.792Z,42.40
2018-08-16T00:50:43.259Z,42.40
2018-08-16T00:53:11.923Z,42.40
2018-08-16T00:58:43.347Z,43.50
2018-08-16T01:03:52.919Z,43.10
2018-08-16T01:06:21.860Z,43.00
2018-08-16T01:08:49.835Z,43.00
2018-08-16T01:11:41.856Z,42.70
2018-08-16T01:14:14.516Z,43.30
2018-08-16T01:16:49.121Z,43.00
2018-08-16T01:19:18.471Z,42.90
2018-08-16T01:27:29.074Z,43.40
2018-08-16T01:29:57.028Z,43.30
2018-08-16T01:32:38.353Z,43.40
2018-08-16T01:35:07.139Z,43.30
2018-08-16T01:40:39.880Z,43.20
2018-08-16T01:43:08.479Z,43.30
2018-08-16T01:45:37.215Z,43.50
2018-08-16T01:48:05.059Z,43.20
2018-08-16T01:50:32.859Z,43.10
2018-08-16T01:53:01.500Z,43.10
2018-08-16T01:55:32.186Z,43.20
2018-08-16T01:58:00.712Z,43.40
2018-08-16T02:00:28.710Z,43.30
2018-08-16T02:02:58.786Z,43.30
2018-08-16T02:05:29.003Z,43.20
2018-08-16T02:08:08.841Z,43.30
2018-08-16T02:10:43.307Z,43.40
2018-08-16T02:16:11.919Z,43.50
2018-08-16T02:18:42.661Z,43.90
2018-08-16T02:21:11.304Z,43.80
2018-08-16T02:23:44.468Z,43.70
2018-08-16T02:26:12.436Z,43.90
2018-08-16T02:28:41.080Z,44.00
2018-08-16T02:31:13.167Z,44.00
2018-08-16T02:36:48.141Z,45.20
2018-08-16T02:39:30.404Z,44.50
2018-08-16T02:41:58.452Z,44.60
2018-08-16T02:47:39.699Z,45.10
2018-08-16T02:50:07.519Z,45.20
2018-08-16T02:52:36.191Z,45.40
2018-08-16T02:55:13.635Z,45.10
2018-08-16T02:57:43.553Z,45.40
2018-08-16T03:00:12.167Z,45.10
2018-08-16T03:05:44.533Z,45.10
2018-08-16T03:08:12.732Z,44.80
2018-08-16T03:10:45.915Z,45.20
2018-08-16T03:13:14.602Z,45.00
2018-08-16T03:15:44.224Z,44.80
2018-08-16T03:24:05.566Z,44.60
2018-08-16T03:26:33.662Z,44.70
2018-08-16T03:29:03.886Z,44.60
2018-08-16T03:31:32.337Z,44.70
2018-08-16T03:34:02.467Z,44.60
2018-08-16T03:36:30.611Z,44.50
2018-08-16T03:38:58.539Z,44.40
2018-08-16T03:41:26.628Z,44.40
2018-08-16T03:44:10.511Z,44.30
2018-08-16T03:46:39.118Z,44.10
2018-08-16T03:49:07.654Z,44.00
2018-08-16T03:51:44.281Z,44.00
2018-08-16T03:54:17.220Z,43.90
2018-08-16T03:56:45.264Z,43.80
2018-08-16T04:01:58.196Z,43.70
2018-08-16T04:04:26.047Z,43.70
2018-08-16T04:06:54.155Z,43.60
2018-08-16T04:09:21.896Z,43.80
2018-08-16T04:11:50.052Z,43.50
2018-08-16T04:14:17.863Z,43.60
2018-08-16T04:19:38.583Z,43.50
2018-08-16T04:22:06.339Z,43.50
2018-08-16T04:24:42.304Z,43.50
2018-08-16T04:27:10.182Z,43.70
2018-08-16T04:29:37.916Z,43.50
2018-08-16T04:32:05.937Z,43.50
2018-08-16T04:34:41.937Z,43.40
2018-08-16T04:37:10.584Z,43.50
2018-08-16T04:39:42.336Z,43.60
2018-08-16T04:42:10.753Z,43.50
2018-08-16T04:44:40.170Z,43.70
2018-08-16T04:47:08.522Z,43.70
2018-08-16T04:49:39.711Z,43.70
2018-08-16T04:52:08.155Z,43.90
2018-08-16T04:54:36.350Z,43.80
2018-08-16T04:57:04.434Z,43.80
2018-08-16T04:59:32.295Z,43.80
2018-08-16T05:02:12.473Z,43.90
2018-08-16T05:04:40.194Z,44.00
2018-08-16T05:07:09.777Z,44.40
2018-08-16T05:09:38.628Z,44.20
2018-08-16T05:12:11.533Z,44.40
2018-08-16T05:17:20.991Z,44.70
2018-08-16T05:19:49.798Z,44.60
2018-08-16T05:22:23.293Z,45.00
2018-08-16T05:24:51.265Z,44.80
2018-08-16T05:27:18.993Z,44.70
2018-08-16T05:29:46.979Z,44.80
2018-08-16T05:32:15.030Z,44.90
2018-08-16T05:34:46.343Z,44.90
2018-08-16T05:37:16.351Z,44.90
2018-08-16T05:39:56.915Z,44.80
2018-08-16T05:42:27.504Z,44.90
2018-08-16T05:44:59.945Z,44.70
2018-08-16T05:47:27.923Z,45.00
2018-08-16T05:49:56.382Z,45.10
2018-08-16T05:52:24.479Z,45.40
2018-08-16T05:55:12.418Z,45.50
2018-08-16T05:57:40.836Z,45.30
2018-08-16T06:00:13.480Z,45.60
2018-08-16T06:05:37.661Z,45.50
2018-08-16T06:08:06.617Z,45.30
2018-08-16T06:13:29.475Z,45.30
2018-08-16T06:19:00.425Z,45.00
2018-08-16T06:24:31.257Z,45.00
2018-08-16T06:26:59.425Z,44.70
2018-08-16T06:29:28.493Z,44.80
2018-08-16T06:35:00.584Z,44.70
2018-08-16T06:37:28.507Z,44.40
2018-08-16T06:40:09.793Z,44.20
2018-08-16T06:42:39.812Z,44.30
2018-08-16T06:45:10.105Z,44.40
2018-08-16T06:47:37.932Z,44.20
2018-08-16T06:50:08.211Z,44.30
2018-08-16T06:52:36.483Z,44.50
2018-08-16T06:55:05.761Z,44.70
2018-08-16T06:57:34.200Z,44.30
2018-08-16T07:00:02.091Z,44.40
2018-08-16T07:02:36.355Z,44.30
2018-08-16T07:11:00.559Z,43.70
2018-08-16T07:13:28.399Z,43.80
2018-08-16T07:15:56.149Z,43.70
2018-08-16T07:18:32.578Z,43.80
2018-08-16T07:21:00.476Z,43.60
2018-08-16T07:23:40.087Z,43.50
2018-08-16T07:26:07.927Z,43.70
2018-08-16T07:28:36.191Z,42.70
2018-08-16T07:31:13.268Z,42.60
2018-08-16T07:39:41.189Z,42.80
2018-08-16T07:42:09.463Z,42.80
2018-08-16T07:44:37.491Z,42.90
2018-08-16T07:50:11.847Z,42.40
2018-08-16T07:58:36.787Z,40.50
2018-08-16T08:01:05.050Z,40.70
2018-08-16T08:03:34.011Z,41.60
2018-08-16T08:06:12.333Z,40.80
2018-08-16T08:11:48.601Z,40.10
2018-08-16T08:17:13.058Z,39.20
2018-08-16T08:19:43.009Z,39.10
2018-08-16T08:22:12.489Z,39.30
2018-08-16T08:24:40.482Z,38.60
2018-08-16T08:27:08.775Z,38.80
2018-08-16T08:29:37.183Z,37.80
2018-08-16T08:32:09.609Z,38.00
2018-08-16T08:34:38.637Z,37.70
2018-08-16T08:40:13.008Z,36.80
2018-08-16T08:42:57.716Z,37.00
2018-08-16T08:45:25.856Z,37.90
2018-08-16T08:47:56.144Z,37.20
2018-08-16T08:50:24.176Z,36.70
2018-08-16T08:52:51.908Z,37.00
2018-08-16T08:55:30.961Z,37.10
2018-08-16T09:03:52.655Z,36.00
2018-08-16T09:06:27.340Z,36.10
2018-08-16T09:08:55.484Z,36.30
2018-08-16T09:11:34.267Z,36.50
2018-08-16T09:14:14.322Z,36.30
2018-08-16T09:16:42.166Z,35.80
2018-08-16T09:22:12.594Z,35.20
2018-08-16T09:24:40.349Z,34.20
2018-08-16T09:27:08.210Z,35.00
2018-08-16T09:31:48.331Z,35.60
2018-08-16T09:34:19.940Z,35.30
2018-08-16T09:36:47.709Z,34.40
2018-08-16T09:39:15.495Z,34.40
2018-08-16T09:41:43.272Z,34.50
2018-08-16T09:44:12.855Z,34.50
2018-08-16T09:46:53.767Z,33.60
2018-08-16T09:49:21.394Z,34.10
2018-08-16T09:51:49.187Z,34.70
2018-08-16T09:54:16.916Z,33.50
2018-08-16T09:56:45.483Z,34.70
2018-08-16T09:59:14.412Z,33.10
2018-08-16T10:01:42.565Z,32.50
2018-08-16T10:04:10.559Z,32.00
2018-08-16T10:06:41.551Z,31.90
2018-08-16T10:09:13.570Z,32.00
2018-08-16T10:11:41.419Z,32.10
2018-08-16T10:14:09.127Z,31.70
2018-08-16T10:16:37.044Z,31.80
2018-08-16T10:19:05.037Z,30.90
2018-08-16T10:21:39.805Z,31.70
2018-08-16T10:24:08.101Z,31.20
2018-08-16T10:26:35.792Z,31.00
2018-08-16T10:29:03.675Z,31.10
2018-08-16T10:31:32.071Z,30.20
2018-08-16T10:34:00.819Z,30.80
2018-08-16T10:36:28.675Z,30.80
2018-08-16T10:38:58.915Z,29.70
2018-08-16T10:41:27.138Z,30.30
2018-08-16T10:43:54.966Z,30.40
2018-08-16T10:46:23.873Z,29.70
2018-08-16T10:48:52.019Z,30.50
2018-08-16T10:51:20.445Z,30.00
2018-08-16T10:53:48.219Z,29.10
2018-08-16T10:56:16.297Z,28.80
2018-08-16T10:58:44.568Z,28.70
2018-08-16T11:01:12.419Z,29.10
2018-08-16T11:03:40.346Z,29.60
2018-08-16T11:06:08.267Z,29.50
2018-08-16T11:08:36.274Z,28.60
2018-08-16T11:11:04.157Z,28.60
2018-08-16T11:13:31.996Z,28.10
2018-08-16T11:15:59.632Z,27.30
2018-08-16T11:18:28.655Z,27.70
2018-08-16T11:20:56.399Z,27.30
2018-08-16T11:23:24.067Z,26.80
2018-08-16T11:25:51.752Z,26.80
2018-08-16T11:28:20.140Z,27.00
2018-08-16T11:30:47.953Z,27.40
2018-08-16T11:33:16.383Z,27.70
2018-08-16T11:35:44.989Z,27.60
2018-08-16T11:38:12.959Z,27.80
2018-08-16T11:40:41.317Z,26.50
2018-08-16T11:43:09.060Z,26.70
2018-08-16T11:45:46.702Z,27.00
2018-08-16T11:48:22.892Z,26.10
2018-08-16T11:50:50.627Z,26.80
2018-08-16T11:53:19.015Z,26.80
2018-08-16T11:55:52.213Z,27.10
2018-08-16T11:58:21.160Z,27.80
2018-08-16T12:00:49.339Z,27.10
2018-08-16T12:03:27.069Z,26.00
2018-08-16T12:06:09.936Z,25.20
2018-08-16T12:08:50.734Z,24.50
2018-08-16T12:11:18.637Z,23.90
2018-08-16T12:13:47.509Z,24.70
2018-08-16T12:16:16.251Z,24.70
2018-08-16T12:18:44.584Z,25.10
2018-08-16T12:21:12.455Z,25.80
2018-08-16T12:23:48.402Z,23.70
2018-08-16T12:26:16.094Z,23.60
2018-08-16T12:28:59.616Z,22.20
2018-08-16T12:31:27.968Z,21.70
2018-08-16T12:33:55.973Z,21.50
2018-08-16T12:36:23.590Z,21.00
2018-08-16T12:38:56.400Z,21.60
2018-08-16T12:41:32.812Z,20.00
2018-08-16T12:44:00.434Z,20.10
2018-08-16T12:46:29.542Z,19.00
2018-08-16T12:48:59.799Z,18.60
2018-08-16T12:51:30.957Z,18.70
2018-08-16T12:53:58.828Z,18.30
2018-08-16T12:56:27.110Z,18.60
2018-08-16T12:58:55.550Z,17.90
2018-08-16T13:01:23.317Z,16.80
2018-08-16T13:03:52.305Z,16.70
2018-08-16T13:06:20.320Z,16.40
2018-08-16T13:08:48.797Z,16.30
2018-08-16T13:11:16.673Z,16.80
2018-08-16T13:13:44.580Z,16.20
2018-08-16T13:16:12.328Z,16.40
2018-08-16T13:18:40.069Z,16.60
2018-08-16T13:21:08.570Z,17.20
2018-08-16T13:23:41.005Z,17.10
2018-08-16T13:26:08.687Z,17.30
2018-08-16T13:28:36.586Z,17.70
2018-08-16T13:31:04.286Z,17.60
2018-08-16T13:33:32.770Z,16.10
2018-08-16T13:36:01.353Z,17.30
2018-08-16T13:38:29.132Z,17.80
2018-08-16T13:40:57.235Z,18.10
2018-08-16T13:43:24.882Z,17.90
2018-08-16T13:45:53.816Z,18.00
2018-08-16T13:48:22.562Z,18.60
2018-08-16T13:50:50.255Z,18.50
2018-08-16T13:53:18.049Z,18.70
2018-08-16T13:55:45.711Z,19.40
2018-08-16T13:58:20.140Z,18.80
2018-08-16T14:00:47.704Z,18.20
2018-08-16T14:03:15.895Z,17.90
2018-08-16T14:05:43.665Z,17.90
2018-08-16T14:08:11.321Z,18.10
2018-08-16T14:10:39.231Z,18.00
2018-08-16T14:13:08.081Z,18.00
2018-08-16T14:15:36.038Z,18.30
2018-08-16T14:18:04.119Z,18.20
2018-08-16T14:20:32.111Z,18.40
2018-08-16T14:23:00.728Z,18.10
2018-08-16T14:25:28.656Z,16.90
2018-08-16T14:27:56.736Z,16.10
2018-08-16T14:30:24.542Z,15.70
2018-08-16T14:32:52.448Z,16.40
2018-08-16T14:35:20.360Z,16.70
2018-08-16T14:37:47.967Z,16.90
2018-08-16T14:40:15.796Z,17.30
2018-08-16T14:42:44.431Z,17.60
2018-08-16T14:45:12.101Z,17.60
2018-08-16T14:47:40.169Z,17.50
2018-08-16T14:50:07.741Z,17.40
2018-08-16T14:52:35.480Z,17.40
2018-08-16T14:55:03.850Z,17.30
2018-08-16T14:57:31.727Z,17.30
2018-08-16T15:00:00.672Z,17.10
2018-08-16T15:02:28.650Z,17.00
2018-08-16T15:04:56.530Z,16.80
2018-08-16T15:07:24.875Z,16.90
2018-08-16T15:09:52.734Z,16.90
2018-08-16T15:12:20.583Z,17.90
2018-08-16T15:14:48.334Z,17.70
2018-08-16T15:17:16.194Z,18.50
2018-08-16T15:19:44.007Z,18.20
2018-08-16T15:22:13.148Z,18.20
2018-08-16T15:24:41.181Z,18.20
2018-08-16T15:27:08.885Z,18.10
2018-08-16T15:29:36.544Z,18.20
2018-08-16T15:32:04.503Z,17.90
2018-08-16T15:34:32.162Z,18.30
2018-08-16T15:37:00.506Z,18.20
2018-08-16T15:39:28.159Z,17.70
2018-08-16T15:41:55.920Z,17.20
2018-08-16T15:44:24.090Z,17.90
2018-08-16T15:46:51.762Z,18.00
2018-08-16T15:49:19.574Z,17.60
2018-08-16T15:51:47.231Z,17.80
2018-08-16T15:54:15.199Z,18.00
2018-08-16T15:56:43.545Z,18.20
2018-08-16T15:59:11.649Z,18.40
2018-08-16T16:01:39.331Z,18.60
2018-08-16T16:04:07.758Z,18.10
2018-08-16T16:06:35.522Z,17.90
2018-08-16T16:09:04.662Z,17.90
2018-08-16T16:11:32.580Z,17.70
2018-08-16T16:14:00.974Z,18.00
2018-08-16T16:16:29.087Z,18.00
2018-08-16T16:18:57.362Z,17.80
2018-08-16T16:21:26.059Z,17.80
2018-08-16T16:23:54.858Z,18.00
2018-08-16T16:26:22.673Z,17.80
2018-08-16T16:28:50.277Z,18.00
2018-08-16T16:31:17.919Z,17.80
2018-08-16T16:33:45.655Z,17.70
2018-08-16T16:36:13.381Z,17.80
2018-08-16T16:38:41.294Z,17.90
2018-08-16T16:41:10.138Z,17.80
2018-08-16T16:43:45.891Z,17.60
2018-08-16T16:46:25.887Z,18.20
2018-08-16T16:48:53.997Z,17.90
2018-08-16T16:51:23.863Z,18.40
2018-08-16T16:53:51.664Z,18.50
2018-08-16T16:56:19.917Z,18.50
2018-08-16T16:58:47.788Z,18.20
2018-08-16T17:01:17.546Z,18.20
2018-08-16T17:03:45.285Z,18.40
2018-08-16T17:06:13.076Z,18.80
2018-08-16T17:08:40.977Z,18.70
2018-08-16T17:11:09.935Z,18.30
2018-08-16T17:13:39.823Z,17.60
2018-08-16T17:16:07.611Z,18.00
2018-08-16T17:18:35.349Z,17.60
2018-08-16T17:21:04.810Z,17.80
2018-08-16T17:23:32.679Z,17.30
2018-08-16T17:26:01.448Z,17.50
2018-08-16T17:28:29.226Z,17.00
2018-08-16T17:30:57.367Z,16.90
2018-08-16T17:33:27.311Z,16.90
2018-08-16T17:35:55.803Z,17.10
2018-08-16T17:38:26.154Z,17.00
2018-08-16T17:40:54.435Z,16.30
2018-08-16T17:43:23.118Z,16.00
2018-08-16T17:45:51.150Z,16.40
2018-08-16T17:48:19.101Z,15.90
2018-08-16T17:50:47.105Z,16.50
2018-08-16T17:53:14.972Z,17.70
2018-08-16T17:55:42.992Z,17.70
2018-08-16T17:58:10.751Z,17.40
2018-08-16T18:00:43.839Z,17.90
2018-08-16T18:03:11.531Z,19.00
2018-08-16T18:05:39.228Z,18.80
2018-08-16T18:08:08.180Z,19.00
2018-08-16T18:10:40.692Z,18.40
2018-08-16T18:13:09.597Z,18.30
2018-08-16T18:15:37.356Z,18.00
2018-08-16T18:18:07.565Z,18.20
2018-08-16T18:20:35.576Z,18.30
2018-08-16T18:23:03.392Z,18.60
2018-08-16T18:25:31.178Z,19.00
2018-08-16T18:28:11.408Z,19.10
2018-08-16T18:30:39.296Z,19.20
2018-08-16T18:33:07.009Z,20.10
2018-08-16T18:35:34.729Z,20.10
2018-08-16T18:38:02.530Z,20.00
2018-08-16T18:40:31.990Z,20.00
2018-08-16T18:43:01.283Z,20.00
2018-08-16T18:45:29.096Z,19.90
2018-08-16T18:47:57.008Z,20.80
2018-08-16T18:50:27.609Z,20.80
2018-08-16T18:52:57.113Z,21.60
2018-08-16T18:55:24.987Z,21.20
2018-08-16T18:57:58.312Z,21.90
2018-08-16T19:00:26.203Z,22.40
2018-08-16T19:02:55.096Z,23.40
2018-08-16T19:05:24.440Z,23.20
2018-08-16T19:07:52.257Z,23.70
2018-08-16T19:10:20.578Z,23.90
2018-08-16T19:12:48.653Z,25.10
2018-08-16T19:15:16.629Z,24.70
2018-08-16T19:17:46.319Z,24.80
2018-08-16T19:20:14.247Z,24.50
2018-08-16T19:22:42.717Z,26.50
2018-08-16T19:25:11.070Z,26.50
2018-08-16T19:27:49.011Z,25.90
2018-08-16T19:30:17.483Z,26.90
2018-08-16T19:32:45.339Z,26.30
2018-08-16T19:35:13.203Z,26.60
2018-08-16T19:37:44.127Z,26.00
2018-08-16T19:40:12.113Z,26.00
2018-08-16T19:42:39.798Z,26.10
2018-08-16T19:45:48.473Z,27.40
2018-08-16T19:48:16.243Z,27.30
2018-08-16T19:50:44.027Z,27.60
2018-08-16T19:53:20.681Z,26.40
2018-08-16T19:55:50.574Z,26.90
2018-08-16T19:58:20.123Z,27.30
2018-08-16T20:00:49.576Z,27.50
2018-08-16T20:03:21.656Z,27.60
2018-08-16T20:05:49.804Z,27.40
2018-08-16T20:08:17.742Z,27.30
2018-08-16T20:10:46.003Z,27.50
2018-08-16T20:13:13.904Z,28.50
2018-08-16T20:15:41.526Z,28.90
2018-08-16T20:18:09.745Z,28.50
2018-08-16T20:20:37.407Z,28.50
2018-08-16T20:23:06.249Z,28.80
2018-08-16T20:25:34.493Z,28.20
2018-08-16T20:28:03.943Z,28.10
2018-08-16T20:30:31.833Z,28.40
2018-08-16T20:33:00.628Z,28.00
2018-08-16T20:35:28.495Z,28.00
2018-08-16T20:37:57.495Z,29.20
2018-08-16T20:40:25.429Z,28.70
2018-08-16T20:42:53.310Z,29.30
2018-08-16T20:45:22.498Z,29.10
2018-08-16T20:47:50.318Z,29.50
2018-08-16T20:50:18.118Z,30.10
2018-08-16T20:52:45.834Z,29.80
2018-08-16T20:55:14.507Z,29.20
2018-08-16T20:57:42.623Z,29.60
2018-08-16T21:00:11.104Z,29.60
2018-08-16T21:02:39.163Z,30.20
2018-08-16T21:05:07.635Z,29.90
2018-08-16T21:07:35.465Z,31.00
2018-08-16T21:10:03.776Z,30.60
2018-08-16T21:12:31.684Z,30.80
2018-08-16T21:14:59.403Z,30.30
2018-08-16T21:17:27.800Z,30.20
2018-08-16T21:19:56.062Z,30.70
2018-08-16T21:22:23.841Z,30.30
2018-08-16T21:24:52.085Z,31.50
2018-08-16T21:27:20.162Z,30.80
2018-08-16T21:29:49.167Z,30.80
2018-08-16T21:32:17.072Z,31.40
2018-08-16T21:34:44.762Z,31.20
2018-08-16T21:37:12.542Z,31.20
2018-08-16T21:39:43.489Z,31.10
2018-08-16T21:42:11.373Z,31.00
2018-08-16T21:44:40.158Z,31.40
2018-08-16T21:47:10.737Z,31.20
2018-08-16T21:49:38.836Z,31.50
2018-08-16T21:52:08.719Z,31.60
2018-08-16T21:54:41.233Z,31.80
2018-08-16T21:57:09.202Z,32.00
2018-08-16T21:59:37.054Z,32.20
2018-08-16T22:02:04.940Z,32.90
2018-08-16T22:04:32.964Z,32.30
2018-08-16T22:07:12.680Z,33.10
2018-08-16T22:09:43.547Z,32.80
2018-08-16T22:15:23.760Z,33.20
2018-08-16T22:17:53.381Z,33.80
2018-08-16T22:20:21.722Z,32.30
2018-08-16T22:31:50.112Z,33.00
2018-08-16T22:34:21.613Z,32.80
2018-08-16T22:36:50.391Z,34.80
2018-08-16T22:39:19.409Z,33.50
2018-08-16T22:41:48.892Z,34.70
2018-08-16T22:44:19.035Z,34.00
2018-08-16T22:46:47.593Z,34.20
2018-08-16T22:49:23.636Z,33.90
2018-08-16T22:51:52.166Z,33.90
2018-08-16T22:54:20.401Z,34.90
2018-08-16T22:57:14.150Z,33.50
2018-08-16T22:59:42.670Z,34.50
2018-08-16T23:02:17.232Z,34.10
2018-08-16T23:04:45.885Z,33.00
2018-08-16T23:07:15.963Z,33.80
2018-08-16T23:09:52.426Z,33.60
2018-08-16T23:12:22.787Z,34.10
2018-08-16T23:14:50.866Z,33.40
2018-08-16T23:17:19.712Z,34.80
2018-08-16T23:19:59.842Z,33.50
2018-08-16T23:22:28.492Z,33.40
2018-08-16T23:24:57.616Z,33.30
2018-08-16T23:27:29.719Z,33.70
2018-08-16T23:29:58.563Z,33.20
2018-08-16T23:32:27.172Z,33.70
2018-08-16T23:34:55.278Z,33.60
2018-08-16T23:37:23.620Z,34.00
2018-08-16T23:39:52.256Z,34.50
2018-08-16T23:42:20.785Z,34.40
2018-08-16T23:44:49.772Z,34.10
2018-08-16T23:47:24.043Z,34.40
2018-08-16T23:49:52.476Z,34.40
2018-08-16T23:52:22.948Z,34.40
2018-08-16T23:54:51.623Z,34.40
2018-08-16T23:57:20.268Z,34.40
2018-08-16T23:59:48.936Z,35.10
